createdAt,value
2019-04-06T00:00:49.901Z,26.97
2019-04-06T00:03:53.824Z,26.17
2019-04-06T00:06:57.428Z,26.20
2019-04-06T00:10:01.050Z,26.27
2019-04-06T00:13:04.980Z,25.10
2019-04-06T00:16:08.565Z,24.90
2019-04-06T00:19:12.671Z,24.37
2019-04-06T00:22:16.571Z,24.53
2019-04-06T00:25:20.869Z,24.60
2019-04-06T00:28:24.788Z,24.10
2019-04-06T00:31:37.840Z,23.93
2019-04-06T00:34:41.449Z,24.43
2019-04-06T00:37:45.118Z,23.00
2019-04-06T00:40:49.027Z,22.13
2019-04-06T00:43:52.928Z,22.03
2019-04-06T00:46:56.532Z,21.43
2019-04-06T00:50:00.133Z,20.63
2019-04-06T00:53:03.733Z,21.57
2019-04-06T00:56:07.685Z,20.70
2019-04-06T00:59:11.584Z,21.10
2019-04-06T01:02:15.492Z,20.17
2019-04-06T01:05:19.464Z,19.50
2019-04-06T01:08:23.029Z,20.13
2019-04-06T01:11:26.878Z,19.93
2019-04-06T01:14:31.030Z,19.70
2019-04-06T01:17:34.626Z,19.33
2019-04-06T01:20:38.940Z,19.70
2019-04-06T01:23:42.875Z,19.70
2019-04-06T01:26:46.483Z,19.30
2019-04-06T01:29:50.375Z,17.80
2019-04-06T01:32:53.990Z,18.20
2019-04-06T01:35:58.222Z,18.37
2019-04-06T01:39:02.121Z,17.70
2019-04-06T01:42:06.137Z,18.17
2019-04-06T01:45:10.037Z,17.10
2019-04-06T01:48:13.678Z,17.37
2019-04-06T01:51:17.373Z,17.23
2019-04-06T01:54:21.495Z,16.40
2019-04-06T01:57:25.165Z,16.60
2019-04-06T02:00:28.806Z,16.07
2019-04-06T02:03:32.474Z,16.97
2019-04-06T02:06:36.661Z,15.50
2019-04-06T02:09:40.206Z,16.50
2019-04-06T02:12:43.820Z,16.40
2019-04-06T02:15:47.417Z,15.73
2019-04-06T02:18:51.069Z,15.50
2019-04-06T02:21:55.251Z,15.53
2019-04-06T02:24:59.138Z,16.20
2019-04-06T02:28:03.389Z,15.30
2019-04-06T02:31:26.500Z,15.17
2019-04-06T02:34:38.690Z,15.17
2019-04-06T02:38:00.378Z,14.63
2019-04-06T02:41:19.377Z,14.67
2019-04-06T02:44:23.037Z,15.13
2019-04-06T02:47:26.995Z,14.23
2019-04-06T02:50:30.610Z,14.43
2019-04-06T02:53:34.593Z,13.80
2019-04-06T02:56:45.936Z,13.77
2019-04-06T02:59:43.823Z,14.17
2019-04-06T03:02:47.832Z,14.17
2019-04-06T03:05:51.763Z,13.80
2019-04-06T03:08:55.762Z,13.40
2019-04-06T03:11:59.687Z,13.17
2019-04-06T03:15:03.790Z,14.37
2019-04-06T03:18:07.401Z,13.47
2019-04-06T03:21:11.015Z,13.80
2019-04-06T03:24:14.629Z,13.27
2019-04-06T03:27:18.460Z,12.67
2019-04-06T03:30:22.065Z,12.90
2019-04-06T03:33:25.719Z,12.83
2019-04-06T03:36:29.339Z,12.83
2019-04-06T03:39:32.954Z,13.37
2019-04-06T03:42:36.846Z,12.30
2019-04-06T03:45:40.709Z,11.63
2019-04-06T03:48:44.583Z,12.20
2019-04-06T03:51:48.180Z,12.23
2019-04-06T03:54:51.816Z,12.43
2019-04-06T03:57:55.431Z,12.13
2019-04-06T04:00:59.768Z,11.67
2019-04-06T04:04:03.428Z,12.47
2019-04-06T04:07:07.015Z,11.30
2019-04-06T04:10:13.273Z,11.37
2019-04-06T04:13:17.324Z,10.50
2019-04-06T04:16:20.933Z,10.57
2019-04-06T04:19:24.588Z,11.00
2019-04-06T04:22:28.140Z,36.60
2019-04-06T04:25:32.025Z,124.87
2019-04-06T04:28:35.873Z,112.03
2019-04-06T04:31:39.824Z,43.87
2019-04-06T04:34:43.430Z,74.53
2019-04-06T04:37:47.041Z,55.47
2019-04-06T04:40:50.832Z,78.70
2019-04-06T04:43:54.438Z,129.07
2019-04-06T04:46:58.249Z,86.23
2019-04-06T04:50:01.935Z,62.63
2019-04-06T04:53:05.524Z,58.60
2019-04-06T04:56:09.148Z,49.73
2019-04-06T04:59:12.793Z,48.80
2019-04-06T05:02:16.686Z,50.00
2019-04-06T05:05:21.043Z,41.33
2019-04-06T05:08:24.660Z,38.87
2019-04-06T05:11:28.297Z,99.93
2019-04-06T05:15:04.671Z,91.87
2019-04-06T05:18:08.649Z,88.20
2019-04-06T05:21:13.155Z,85.80
2019-04-06T05:24:16.771Z,80.50
2019-04-06T05:27:20.385Z,79.33
2019-04-06T05:30:23.988Z,77.67
2019-04-06T05:33:27.593Z,75.37
2019-04-06T05:36:31.217Z,72.47
2019-04-06T05:39:34.819Z,70.23
2019-04-06T05:42:38.797Z,67.17
2019-04-06T05:45:42.815Z,66.50
2019-04-06T05:48:46.722Z,64.00
2019-04-06T05:51:50.628Z,63.23
2019-04-06T05:54:54.532Z,61.47
2019-04-06T05:58:04.389Z,58.57
2019-04-06T06:01:04.351Z,59.77
2019-04-06T06:04:10.645Z,57.73
2019-04-06T06:07:14.025Z,56.53
2019-04-06T06:10:17.648Z,54.53
2019-04-06T06:13:21.454Z,53.63
2019-04-06T06:16:25.099Z,53.10
2019-04-06T06:19:28.719Z,50.20
2019-04-06T06:22:32.376Z,51.47
2019-04-06T06:25:36.259Z,50.90
2019-04-06T06:28:39.861Z,48.80
2019-04-06T06:31:43.752Z,47.03
2019-04-06T06:34:47.353Z,47.40
2019-04-06T06:37:51.225Z,46.13
2019-04-06T06:40:54.810Z,45.40
2019-04-06T06:43:58.741Z,46.97
2019-04-06T06:47:02.591Z,44.33
2019-04-06T06:50:06.861Z,44.47
2019-04-06T06:53:10.773Z,42.17
2019-04-06T06:56:14.340Z,41.60
2019-04-06T06:59:18.003Z,40.83
2019-04-06T07:02:21.603Z,40.90
2019-04-06T07:05:25.313Z,39.70
2019-04-06T07:08:28.894Z,39.50
2019-04-06T07:11:32.800Z,37.83
2019-04-06T07:14:36.362Z,38.97
2019-04-06T07:17:40.231Z,38.13
2019-04-06T07:20:43.794Z,37.63
2019-04-06T07:23:47.946Z,36.77
2019-04-06T07:26:51.795Z,36.93
2019-04-06T07:29:55.381Z,35.73
2019-04-06T07:32:58.967Z,36.07
2019-04-06T07:36:02.877Z,34.97
2019-04-06T07:39:07.037Z,33.23
2019-04-06T07:42:10.606Z,33.60
2019-04-06T07:45:14.420Z,32.83
2019-04-06T07:48:18.390Z,32.43
2019-04-06T07:51:22.658Z,32.30
2019-04-06T07:54:26.549Z,32.07
2019-04-06T07:57:30.116Z,30.93
2019-04-06T08:00:34.284Z,30.87
2019-04-06T08:03:38.380Z,30.70
2019-04-06T08:06:41.965Z,30.73
2019-04-06T08:09:45.537Z,30.40
2019-04-06T08:12:49.108Z,29.90
2019-04-06T08:15:53.232Z,28.87
2019-04-06T08:18:56.875Z,32.43
2019-04-06T08:22:00.382Z,55.37
2019-04-06T08:25:04.373Z,96.27
2019-04-06T08:28:07.954Z,77.87
2019-04-06T08:31:11.823Z,63.07
2019-04-06T08:34:15.735Z,49.97
2019-04-06T08:37:19.897Z,49.63
2019-04-06T08:40:23.802Z,110.30
2019-04-06T08:43:27.995Z,123.60
2019-04-06T08:46:31.588Z,129.20
2019-04-06T08:49:35.478Z,132.63
2019-04-06T08:52:39.078Z,93.53
2019-04-06T08:55:42.937Z,76.30
2019-04-06T08:58:46.866Z,59.30
2019-04-06T09:01:50.414Z,58.67
2019-04-06T09:04:54.123Z,50.67
2019-04-06T09:07:57.855Z,46.83
2019-04-06T09:11:01.636Z,40.87
2019-04-06T09:14:05.273Z,45.13
2019-04-06T09:17:09.184Z,40.40
2019-04-06T09:20:13.308Z,42.00
2019-04-06T09:23:16.897Z,43.27
2019-04-06T09:26:20.756Z,42.60
2019-04-06T09:29:25.020Z,36.97
2019-04-06T09:32:28.928Z,37.47
2019-04-06T09:35:32.464Z,35.70
2019-04-06T09:38:36.038Z,36.33
2019-04-06T09:41:39.620Z,49.53
2019-04-06T09:44:58.365Z,35.53
2019-04-06T09:48:20.973Z,33.77
2019-04-06T09:51:36.405Z,35.13
2019-04-06T09:54:58.386Z,34.43
2019-04-06T09:58:30.213Z,33.53
2019-04-06T10:01:44.817Z,33.47
2019-04-06T10:05:10.697Z,33.50
2019-04-06T10:08:29.270Z,29.33
2019-04-06T10:11:42.029Z,32.47
2019-04-06T10:15:00.007Z,35.33
2019-04-06T10:18:13.660Z,38.37
2019-04-06T10:21:37.940Z,32.20
2019-04-06T10:25:04.457Z,41.57
2019-04-06T10:28:23.430Z,34.60
2019-04-06T10:32:01.728Z,32.77
2019-04-06T10:35:17.063Z,33.03
2019-04-06T10:38:45.804Z,32.03
2019-04-06T10:41:58.788Z,26.83
2019-04-06T10:45:20.487Z,28.33
2019-04-06T10:48:43.121Z,63.63
2019-04-06T10:52:04.891Z,69.30
2019-04-06T10:55:30.828Z,47.37
2019-04-06T10:58:41.424Z,57.23
2019-04-06T11:02:10.450Z,40.00
2019-04-06T11:05:48.402Z,33.20
2019-04-06T11:08:58.236Z,30.00
2019-04-06T11:12:14.832Z,23.63
2019-04-06T11:15:36.401Z,22.60
2019-04-06T11:18:57.721Z,18.83
2019-04-06T11:22:10.597Z,22.20
2019-04-06T11:25:23.011Z,20.30
2019-04-06T11:28:51.847Z,19.23
2019-04-06T11:32:15.094Z,19.93
2019-04-06T11:35:37.694Z,19.70
2019-04-06T11:39:06.319Z,19.60
2019-04-06T11:42:16.164Z,18.40
2019-04-06T11:45:34.929Z,18.80
2019-04-06T11:49:06.677Z,18.63
2019-04-06T11:52:28.622Z,18.37
2019-04-06T11:55:38.995Z,17.93
2019-04-06T11:59:11.075Z,17.20
2019-04-06T12:02:32.553Z,16.77
2019-04-06T12:05:55.507Z,17.57
2019-04-06T12:09:12.900Z,17.20
2019-04-06T12:12:23.952Z,16.83
2019-04-06T12:15:50.276Z,17.43
2019-04-06T12:19:03.715Z,17.93
2019-04-06T12:22:38.482Z,15.90
2019-04-06T12:26:13.536Z,16.43
2019-04-06T12:29:28.750Z,15.57
2019-04-06T12:32:41.142Z,15.43
2019-04-06T12:35:53.700Z,15.73
2019-04-06T12:39:14.295Z,16.13
2019-04-06T12:42:36.124Z,15.83
2019-04-06T12:46:10.877Z,15.10
2019-04-06T12:49:26.959Z,13.87
2019-04-06T12:52:45.822Z,14.90
2019-04-06T12:55:58.335Z,14.20
2019-04-06T12:59:24.383Z,14.07
2019-04-06T13:02:49.841Z,14.13
2019-04-06T13:06:16.001Z,167.43
2019-04-06T13:09:47.955Z,559.33
2019-04-06T13:13:06.760Z,549.43
2019-04-06T13:16:33.312Z,472.90
2019-04-06T13:19:49.551Z,337.20
2019-04-06T13:23:10.666Z,316.63
2019-04-06T13:26:27.449Z,257.13
2019-04-06T13:29:49.075Z,195.20
2019-04-06T13:33:04.793Z,68.13
2019-04-06T13:36:14.715Z,45.57
2019-04-06T13:39:29.232Z,40.30
2019-04-06T13:42:52.259Z,42.43
2019-04-06T13:46:14.036Z,28.10
2019-04-06T13:49:27.101Z,34.30
2019-04-06T13:52:47.236Z,22.20
2019-04-06T13:56:04.275Z,19.40
2019-04-06T13:59:16.229Z,28.13
2019-04-06T14:02:26.225Z,18.40
2019-04-06T14:05:38.742Z,23.23
2019-04-06T14:08:52.248Z,24.80
2019-04-06T14:12:11.716Z,21.97
2019-04-06T14:15:25.382Z,22.93
2019-04-06T14:18:48.037Z,15.97
2019-04-06T14:22:11.077Z,20.53
2019-04-06T14:25:32.524Z,19.90
2019-04-06T14:28:46.152Z,18.67
2019-04-06T14:32:04.128Z,19.30
2019-04-06T14:35:28.952Z,18.40
2019-04-06T14:38:52.041Z,16.27
2019-04-06T14:42:14.913Z,17.10
2019-04-06T14:45:36.922Z,17.13
2019-04-06T14:48:50.187Z,17.50
2019-04-06T14:52:11.890Z,17.00
2019-04-06T14:55:40.231Z,14.77
2019-04-06T14:58:59.128Z,15.27
2019-04-06T15:02:24.787Z,15.47
2019-04-06T15:05:39.584Z,15.17
2019-04-06T15:09:02.191Z,14.30
2019-04-06T15:12:24.384Z,15.97
2019-04-06T15:15:46.292Z,18.40
2019-04-06T15:19:11.935Z,16.90
2019-04-06T15:22:37.415Z,13.67
2019-04-06T15:25:57.954Z,14.67
2019-04-06T15:29:18.642Z,13.63
2019-04-06T15:32:44.648Z,15.50
2019-04-06T15:36:10.098Z,14.70
2019-04-06T15:39:32.742Z,14.97
2019-04-06T15:42:41.852Z,14.43
2019-04-06T15:45:51.902Z,76.67
2019-04-06T15:49:18.126Z,98.27
2019-04-06T15:52:43.817Z,473.90
2019-04-06T15:56:19.309Z,152.90
2019-04-06T15:59:30.403Z,527.53
2019-04-06T16:02:53.395Z,83.87
2019-04-06T16:06:12.471Z,47.17
2019-04-06T16:09:34.205Z,77.87
2019-04-06T16:13:02.774Z,86.03
2019-04-06T16:16:28.705Z,87.07
2019-04-06T16:19:47.361Z,80.07
2019-04-06T16:23:01.684Z,78.83
2019-04-06T16:26:11.840Z,75.93
2019-04-06T16:29:36.852Z,74.73
2019-04-06T16:32:56.632Z,70.50
2019-04-06T16:36:09.793Z,70.70
2019-04-06T16:39:32.926Z,70.03
2019-04-06T16:42:45.063Z,70.47
2019-04-06T16:46:06.618Z,69.57
2019-04-06T16:49:35.812Z,68.37
2019-04-06T16:52:54.249Z,66.70
2019-04-06T16:56:05.554Z,66.43
2019-04-06T16:59:23.115Z,63.10
2019-04-06T17:02:42.194Z,65.10
2019-04-06T17:05:58.396Z,62.07
2019-04-06T17:09:13.004Z,61.10
2019-04-06T17:12:35.554Z,60.67
2019-04-06T17:16:06.359Z,58.63
2019-04-06T17:19:22.437Z,57.30
2019-04-06T17:22:35.870Z,58.07
2019-04-06T17:25:49.105Z,57.80
2019-04-06T17:29:19.627Z,57.33
2019-04-06T17:32:36.219Z,56.57
2019-04-06T17:35:48.363Z,54.03
2019-04-06T17:39:08.371Z,55.57
2019-04-06T17:42:31.312Z,55.17
2019-04-06T17:45:41.964Z,52.33
2019-04-06T17:48:59.995Z,52.27
2019-04-06T17:52:17.203Z,24.30
2019-04-06T17:55:42.483Z,23.77
2019-04-06T17:59:03.460Z,23.57
2019-04-06T18:02:24.860Z,23.90
2019-04-06T18:05:38.621Z,25.37
2019-04-06T18:08:58.026Z,24.10
2019-04-06T18:12:13.687Z,24.67
2019-04-06T18:15:17.805Z,33.80
2019-04-06T18:18:22.208Z,23.90
2019-04-06T18:21:26.174Z,23.47
2019-04-06T18:24:29.828Z,27.67
2019-04-06T18:27:33.886Z,30.10
2019-04-06T18:30:37.851Z,32.17
2019-04-06T18:33:41.473Z,30.87
2019-04-06T18:37:07.158Z,29.37
2019-04-06T18:40:17.176Z,30.40
2019-04-06T18:43:20.767Z,29.73
2019-04-06T18:46:24.790Z,29.47
2019-04-06T18:49:29.438Z,28.27
2019-04-06T18:52:33.089Z,28.80
2019-04-06T18:55:36.991Z,28.67
2019-04-06T18:58:40.821Z,27.13
2019-04-06T19:01:44.898Z,28.07
2019-04-06T19:04:48.775Z,27.90
2019-04-06T19:07:52.901Z,26.63
2019-04-06T19:10:56.757Z,27.47
2019-04-06T19:14:00.479Z,26.80
2019-04-06T19:17:04.099Z,27.90
2019-04-06T19:20:09.181Z,27.40
2019-04-06T19:23:12.838Z,27.80
2019-04-06T19:26:17.143Z,28.33
2019-04-06T19:29:21.627Z,27.93
2019-04-06T19:32:25.208Z,27.50
2019-04-06T19:35:30.385Z,27.33
2019-04-06T19:38:34.715Z,27.57
2019-04-06T19:41:38.340Z,27.60
2019-04-06T19:44:42.524Z,27.33
2019-04-06T19:47:46.612Z,25.70
2019-04-06T19:50:50.176Z,26.70
2019-04-06T19:53:54.030Z,30.80
2019-04-06T19:56:57.953Z,38.93
2019-04-06T20:00:01.545Z,35.53
2019-04-06T20:03:05.560Z,39.20
2019-04-06T20:06:09.590Z,38.87
2019-04-06T20:09:13.539Z,37.43
2019-04-06T20:12:17.109Z,36.43
2019-04-06T20:15:21.321Z,34.97
2019-04-06T20:18:24.910Z,33.80
2019-04-06T20:21:29.505Z,30.30
2019-04-06T20:24:33.450Z,33.27
2019-04-06T20:27:37.178Z,30.93
2019-04-06T20:30:41.297Z,29.40
2019-04-06T20:33:50.984Z,27.50
2019-04-06T20:36:51.129Z,28.03
2019-04-06T20:39:54.871Z,29.73
2019-04-06T20:42:58.461Z,29.10
2019-04-06T20:46:02.073Z,28.90
2019-04-06T20:49:05.667Z,28.60
2019-04-06T20:52:09.716Z,28.23
2019-04-06T20:55:13.347Z,27.93
2019-04-06T20:58:17.201Z,27.73
2019-04-06T21:01:21.272Z,28.37
2019-04-06T21:04:25.217Z,27.03
2019-04-06T21:07:29.127Z,26.03
2019-04-06T21:10:33.054Z,25.83
2019-04-06T21:13:36.964Z,24.90
2019-04-06T21:16:40.967Z,25.90
2019-04-06T21:19:44.879Z,24.97
2019-04-06T21:22:49.692Z,25.03
2019-04-06T21:25:54.043Z,23.70
2019-04-06T21:28:58.451Z,24.20
2019-04-06T21:32:02.782Z,23.50
2019-04-06T21:35:06.890Z,33.37
2019-04-06T21:38:10.764Z,28.60
2019-04-06T21:41:14.991Z,37.43
2019-04-06T21:44:18.758Z,29.47
2019-04-06T21:47:22.283Z,35.87
2019-04-06T21:50:25.856Z,33.03
2019-04-06T21:53:29.434Z,32.23
2019-04-06T21:56:34.201Z,31.70
2019-04-06T21:59:37.841Z,31.13
2019-04-06T22:02:41.745Z,30.73
2019-04-06T22:05:45.620Z,30.30
2019-04-06T22:08:49.220Z,29.77
2019-04-06T22:11:53.104Z,30.00
2019-04-06T22:14:57.224Z,28.10
2019-04-06T22:18:01.215Z,28.10
2019-04-06T22:21:04.806Z,27.90
2019-04-06T22:24:08.375Z,27.50
2019-04-06T22:27:12.066Z,27.03
2019-04-06T22:30:16.062Z,25.93
2019-04-06T22:33:19.940Z,25.70
2019-04-06T22:36:23.510Z,26.57
2019-04-06T22:39:27.089Z,25.87
2019-04-06T22:42:30.675Z,26.23
2019-04-06T22:45:34.843Z,25.23
2019-04-06T22:48:39.208Z,25.27
2019-04-06T22:51:43.429Z,24.20
2019-04-06T22:54:47.086Z,24.87
2019-04-06T22:57:50.741Z,24.37
2019-04-06T23:00:59.181Z,23.33
2019-04-06T23:04:22.079Z,23.33
2019-04-06T23:07:27.067Z,23.40
2019-04-06T23:10:30.889Z,22.17
2019-04-06T23:13:34.615Z,23.20
2019-04-06T23:16:38.127Z,23.10
2019-04-06T23:19:42.065Z,22.63
2019-04-06T23:22:46.184Z,21.17
2019-04-06T23:25:49.783Z,21.77
2019-04-06T23:28:53.945Z,21.70
2019-04-06T23:31:58.700Z,20.97
2019-04-06T23:35:02.667Z,21.10
2019-04-06T23:38:07.460Z,21.43
2019-04-06T23:41:11.688Z,21.57
2019-04-06T23:44:15.965Z,22.03
2019-04-06T23:47:19.834Z,21.07
2019-04-06T23:50:24.000Z,20.30
2019-04-06T23:53:27.911Z,21.40
2019-04-06T23:56:32.207Z,20.37
2019-04-06T23:59:36.155Z,20.27
